Time;durP1;ratioP1;P1;durP2;ratioP2;P2;SDS_P1;SDS_P2;PMS_P1;PMS_P2;Temp;Humidity;BMP_temperature;BMP_pressure;BME280_temperature;BME280_humidity;BME280_pressure;Samples;Min_cycle;Max_cycle;Signal;HPM_P1;HPM_P2
2022/09/04 00:00:07;;;;;;;6.00;5.40;;;;;;;;;;5098601;28;20462;-73
2022/09/04 00:02:39;;;;;;;7.03;5.37;;;;;;;;;;5098276;28;20446;-73
2022/09/04 00:05:12;;;;;;;4.80;4.40;;;;;;;;;;5098820;28;20976;-73
2022/09/04 00:07:47;;;;;;;7.47;5.63;;;;;;;;;;5097398;28;20451;-74
2022/09/04 00:10:19;;;;;;;5.90;4.83;;;;;;;;;;5098033;28;20485;-73
2022/09/04 00:12:48;;;;;;;6.10;4.87;;;;;;;;;;5097545;28;20442;-73
2022/09/04 00:15:19;;;;;;;6.27;5.20;;;;;;;;;;5097347;28;20473;-73
2022/09/04 00:17:51;;;;;;;4.97;4.50;;;;;;;;;;5097535;28;20457;-73
2022/09/04 00:20:21;;;;;;;5.33;4.83;;;;;;;;;;5096621;28;20450;-73
2022/09/04 00:22:52;;;;;;;6.40;5.40;;;;;;;;;;5096498;28;20454;-73
2022/09/04 00:25:22;;;;;;;4.60;4.10;;;;;;;;;;5096899;28;20574;-73
2022/09/04 00:27:52;;;;;;;4.23;3.77;;;;;;;;;;5097550;28;20469;-73
2022/09/04 00:30:20;;;;;;;5.97;3.43;;;;;;;;;;5096708;28;20487;-73
2022/09/04 00:32:53;;;;;;;4.40;4.00;;;;;;;;;;5097505;28;20913;-73
2022/09/04 00:35:23;;;;;;;4.40;3.70;;;;;;;;;;5097238;28;20992;-73
2022/09/04 00:37:52;;;;;;;5.97;3.93;;;;;;;;;;5097451;28;20928;-73
2022/09/04 00:40:27;;;;;;;6.00;3.87;;;;;;;;;;5097145;28;20465;-73
2022/09/04 00:43:11;;;;;;;4.10;3.43;;;;;;;;;;5097021;28;20448;-73
2022/09/04 00:45:47;;;;;;;4.97;4.43;;;;;;;;;;5096593;28;20451;-73
2022/09/04 00:48:20;;;;;;;5.60;4.50;;;;;;;;;;5096670;28;20461;-73
2022/09/04 00:51:03;;;;;;;5.57;4.73;;;;;;;;;;5096827;28;20544;-73
2022/09/04 00:53:35;;;;;;;7.73;4.83;;;;;;;;;;5096190;28;20470;-73
2022/09/04 00:56:16;;;;;;;5.63;4.43;;;;;;;;;;5096383;28;20457;-73
2022/09/04 00:58:51;;;;;;;6.27;4.70;;;;;;;;;;5096141;28;20465;-73
2022/09/04 01:01:21;;;;;;;7.40;5.00;;;;;;;;;;5096520;28;20490;-73
2022/09/04 01:04:11;;;;;;;7.40;4.80;;;;;;;;;;5095894;28;20474;-74
2022/09/04 01:06:42;;;;;;;4.90;4.27;;;;;;;;;;5095758;28;20450;-73
2022/09/04 01:09:20;;;;;;;6.33;4.77;;;;;;;;;;5096081;28;20968;-73
2022/09/04 01:11:53;;;;;;;4.70;4.20;;;;;;;;;;5096197;28;20494;-73
2022/09/04 01:14:26;;;;;;;4.93;4.37;;;;;;;;;;5095767;28;20485;-73
2022/09/04 01:16:58;;;;;;;6.87;4.93;;;;;;;;;;5095910;28;20458;-73
2022/09/04 01:19:30;;;;;;;6.00;4.97;;;;;;;;;;5095720;28;20450;-73
2022/09/04 01:22:05;;;;;;;6.07;5.47;;;;;;;;;;5095723;28;20446;-73
2022/09/04 01:24:46;;;;;;;5.90;5.20;;;;;;;;;;5095438;28;20474;-74
2022/09/04 01:27:19;;;;;;;4.80;4.03;;;;;;;;;;5093737;28;20454;-73
2022/09/04 01:29:53;;;;;;;5.37;4.60;;;;;;;;;;5095743;28;20443;-73
2022/09/04 01:32:26;;;;;;;5.80;4.80;;;;;;;;;;5096172;28;21018;-73
2022/09/04 01:34:58;;;;;;;6.77;4.43;;;;;;;;;;5094842;28;20475;-74
2022/09/04 01:37:40;;;;;;;8.33;5.00;;;;;;;;;;5095784;28;20459;-74
2022/09/04 01:40:16;;;;;;;4.73;4.23;;;;;;;;;;5095738;28;20450;-73
2022/09/04 01:42:49;;;;;;;6.80;4.80;;;;;;;;;;5096310;28;20481;-73
2022/09/04 01:45:20;;;;;;;6.43;4.50;;;;;;;;;;5095438;28;20475;-73
2022/09/04 01:47:49;;;;;;;7.37;5.43;;;;;;;;;;5095967;28;20804;-74
2022/09/04 01:50:19;;;;;;;5.70;4.70;;;;;;;;;;5095383;28;20450;-73
2022/09/04 01:52:49;;;;;;;7.40;4.40;;;;;;;;;;5095668;28;20508;-73
2022/09/04 01:55:20;;;;;;;5.40;4.57;;;;;;;;;;5095130;28;20478;-73
2022/09/04 01:57:58;;;;;;;4.83;4.10;;;;;;;;;;5095892;28;20883;-73
2022/09/04 02:00:26;;;;;;;4.33;3.93;;;;;;;;;;5095437;28;20455;-73
2022/09/04 02:03:01;;;;;;;4.53;4.13;;;;;;;;;;5095288;28;20455;-73
2022/09/04 02:05:31;;;;;;;4.90;3.83;;;;;;;;;;5094955;28;20503;-73
2022/09/04 02:08:05;;;;;;;5.90;3.97;;;;;;;;;;5094815;28;20454;-73
2022/09/04 02:10:37;;;;;;;5.07;4.27;;;;;;;;;;5095140;28;20506;-73
2022/09/04 02:13:11;;;;;;;7.83;4.37;;;;;;;;;;5094947;28;20451;-73
2022/09/04 02:15:42;;;;;;;5.07;3.97;;;;;;;;;;5094927;28;20439;-73
2022/09/04 02:18:14;;;;;;;6.23;4.23;;;;;;;;;;5095107;28;20524;-73
2022/09/04 02:20:45;;;;;;;4.53;4.03;;;;;;;;;;5094850;28;20451;-73
2022/09/04 02:23:16;;;;;;;4.50;3.97;;;;;;;;;;5094498;28;20451;-73
2022/09/04 02:25:48;;;;;;;8.73;4.50;;;;;;;;;;5094732;28;20446;-73
2022/09/04 02:28:23;;;;;;;5.60;4.37;;;;;;;;;;5094531;28;20457;-73
2022/09/04 02:30:54;;;;;;;6.57;4.73;;;;;;;;;;5094694;28;20486;-73
2022/09/04 02:33:25;;;;;;;7.33;4.87;;;;;;;;;;5094586;28;20471;-73
2022/09/04 02:35:56;;;;;;;6.13;4.73;;;;;;;;;;5094774;28;20451;-73
2022/09/04 02:38:30;;;;;;;4.30;3.77;;;;;;;;;;5094999;28;20454;-73
2022/09/04 02:41:01;;;;;;;6.40;5.00;;;;;;;;;;5094444;28;20463;-73
2022/09/04 02:43:35;;;;;;;11.10;5.37;;;;;;;;;;5094353;28;20475;-74
2022/09/04 02:46:05;;;;;;;4.97;3.90;;;;;;;;;;5094194;28;20459;-73
2022/09/04 02:48:39;;;;;;;3.80;3.47;;;;;;;;;;5094391;28;20451;-73
2022/09/04 02:51:21;;;;;;;4.53;4.03;;;;;;;;;;5094602;28;20521;-73
2022/09/04 02:53:54;;;;;;;5.70;3.60;;;;;;;;;;5094256;28;20475;-73
2022/09/04 02:56:25;;;;;;;5.50;3.70;;;;;;;;;;5094684;28;20987;-73
2022/09/04 02:59:07;;;;;;;24.60;17.27;;;;;;;;;;5094628;28;20455;-73
2022/09/04 03:01:40;;;;;;;5.20;4.20;;;;;;;;;;5094315;28;20502;-73
2022/09/04 03:04:13;;;;;;;12.00;3.80;;;;;;;;;;5094124;28;20520;-73
2022/09/04 03:06:47;;;;;;;3.20;2.80;;;;;;;;;;5093970;28;20465;-73
2022/09/04 03:09:16;;;;;;;4.70;3.10;;;;;;;;;;5094622;28;20457;-73
2022/09/04 03:11:46;;;;;;;3.60;3.00;;;;;;;;;;5094590;28;20490;-73
2022/09/04 03:14:18;;;;;;;8.77;5.43;;;;;;;;;;5094142;28;20471;-73
2022/09/04 03:16:48;;;;;;;3.30;3.00;;;;;;;;;;5094495;28;20457;-73
2022/09/04 03:19:18;;;;;;;2.90;2.70;;;;;;;;;;5094206;28;20455;-73
2022/09/04 03:21:49;;;;;;;3.90;3.30;;;;;;;;;;5094490;28;20499;-73
2022/09/04 03:24:18;;;;;;;4.13;2.90;;;;;;;;;;5094036;28;20958;-73
2022/09/04 03:26:49;;;;;;;3.47;3.17;;;;;;;;;;5094098;28;20447;-73
2022/09/04 03:29:23;;;;;;;3.30;3.03;;;;;;;;;;5094060;28;20461;-73
2022/09/04 03:31:57;;;;;;;3.00;2.70;;;;;;;;;;5094184;28;20593;-73
2022/09/04 03:34:28;;;;;;;3.50;3.20;;;;;;;;;;5094121;28;20482;-73
2022/09/04 03:37:01;;;;;;;3.90;3.30;;;;;;;;;;5094393;28;20469;-73
2022/09/04 03:39:35;;;;;;;2.70;2.50;;;;;;;;;;5094167;28;20447;-73
2022/09/04 03:42:07;;;;;;;9.70;7.60;;;;;;;;;;5094395;28;20461;-73
2022/09/04 03:44:41;;;;;;;5.10;4.23;;;;;;;;;;5093836;28;20478;-73
2022/09/04 03:47:13;;;;;;;4.77;4.27;;;;;;;;;;5094296;28;20795;-73
2022/09/04 03:49:45;;;;;;;4.00;3.60;;;;;;;;;;5094284;28;20490;-73
2022/09/04 03:52:16;;;;;;;4.20;3.80;;;;;;;;;;5094278;28;20827;-73
2022/09/04 03:54:50;;;;;;;4.70;3.60;;;;;;;;;;5093727;28;20502;-73
2022/09/04 03:57:26;;;;;;;4.17;3.33;;;;;;;;;;5095504;28;20445;-73
2022/09/04 04:00:07;;;;;;;3.50;2.63;;;;;;;;;;5097732;28;20451;-73
2022/09/04 04:02:38;;;;;;;2.83;2.40;;;;;;;;;;5097346;28;20506;-73
2022/09/04 04:05:26;;;;;;;4.20;2.43;;;;;;;;;;5097459;28;20473;-73
2022/09/04 04:08:04;;;;;;;4.03;2.30;;;;;;;;;;5096972;28;20447;-73
2022/09/04 04:10:39;;;;;;;6.33;3.00;;;;;;;;;;5096984;28;20546;-73
2022/09/04 04:13:18;;;;;;;5.30;2.90;;;;;;;;;;5096792;28;20525;-73
2022/09/04 04:15:53;;;;;;;2.60;2.40;;;;;;;;;;5096554;28;20936;-73
2022/09/04 04:18:33;;;;;;;4.17;3.77;;;;;;;;;;5096577;28;20449;-73
2022/09/04 04:21:06;;;;;;;3.70;3.40;;;;;;;;;;5096618;28;20542;-73
2022/09/04 04:23:56;;;;;;;5.03;3.57;;;;;;;;;;5096199;28;20475;-73
2022/09/04 04:26:30;;;;;;;6.70;3.70;;;;;;;;;;5096726;28;20459;-73
2022/09/04 04:29:07;;;;;;;4.00;3.60;;;;;;;;;;5096584;28;20821;-73
2022/09/04 04:31:43;;;;;;;8.00;5.27;;;;;;;;;;5096785;28;20499;-73
2022/09/04 04:34:16;;;;;;;6.00;5.40;;;;;;;;;;5096075;28;20505;-74
2022/09/04 04:36:47;;;;;;;4.93;4.43;;;;;;;;;;5096937;28;20824;-73
2022/09/04 04:39:19;;;;;;;5.80;4.73;;;;;;;;;;5096885;28;20447;-73
2022/09/04 04:42:04;;;;;;;5.30;4.60;;;;;;;;;;5096557;28;20454;-73
2022/09/04 04:47:22;;;;;;;6.67;5.97;;;;;;;;;;5095760;28;20434;-74
2022/09/04 04:49:57;;;;;;;6.40;5.80;;;;;;;;;;5096067;28;20447;-73
2022/09/04 04:52:27;;;;;;;7.90;6.50;;;;;;;;;;5095743;28;20473;-73
2022/09/04 04:55:20;;;;;;;7.30;6.60;;;;;;;;;;5095630;28;20916;-73
2022/09/04 04:57:53;;;;;;;13.00;9.10;;;;;;;;;;5081413;28;20454;-73
2022/09/04 05:00:23;;;;;;;10.77;8.07;;;;;;;;;;5095768;28;20520;-73
2022/09/04 05:03:00;;;;;;;7.90;7.10;;;;;;;;;;5095522;28;20443;-74
2022/09/04 05:05:42;;;;;;;10.13;5.90;;;;;;;;;;5094573;28;20508;-73
2022/09/04 05:08:15;;;;;;;7.80;7.10;;;;;;;;;;5095160;28;20818;-73
2022/09/04 05:10:44;;;;;;;6.80;6.07;;;;;;;;;;5095307;28;20458;-73
2022/09/04 05:13:16;;;;;;;10.70;7.83;;;;;;;;;;5095138;28;20493;-73
2022/09/04 05:15:46;;;;;;;9.00;7.13;;;;;;;;;;5095195;28;20454;-73
2022/09/04 05:18:18;;;;;;;8.43;7.57;;;;;;;;;;5095269;28;20458;-73
2022/09/04 05:20:48;;;;;;;12.63;8.87;;;;;;;;;;5095123;28;20462;-73
2022/09/04 05:23:21;;;;;;;9.23;7.50;;;;;;;;;;5095033;28;20443;-73
2022/09/04 05:25:51;;;;;;;10.20;7.73;;;;;;;;;;5095405;28;20512;-73
2022/09/04 05:28:24;;;;;;;9.57;8.13;;;;;;;;;;5094972;28;20948;-73
2022/09/04 05:30:56;;;;;;;12.63;9.23;;;;;;;;;;5095900;28;20435;-73
2022/09/04 05:33:30;;;;;;;12.77;9.97;;;;;;;;;;5095426;28;20490;-73
2022/09/04 05:36:01;;;;;;;10.30;8.70;;;;;;;;;;5095677;28;20451;-73
2022/09/04 05:38:31;;;;;;;9.93;8.17;;;;;;;;;;5095471;28;20512;-73
2022/09/04 05:41:06;;;;;;;10.80;8.90;;;;;;;;;;5095179;28;20834;-73
2022/09/04 05:43:57;;;;;;;9.30;7.80;;;;;;;;;;5095041;28;21002;-73
2022/09/04 05:46:32;;;;;;;9.27;7.40;;;;;;;;;;5080206;28;20458;-73
2022/09/04 05:49:03;;;;;;;11.67;7.90;;;;;;;;;;5095534;28;20782;-73
2022/09/04 05:51:48;;;;;;;11.60;7.50;;;;;;;;;;5095624;28;20435;-73
2022/09/04 05:54:24;;;;;;;8.30;6.87;;;;;;;;;;5095378;28;21021;-73
2022/09/04 05:57:01;;;;;;;7.10;6.37;;;;;;;;;;5095832;28;20438;-73
2022/09/04 05:59:40;;;;;;;7.23;6.53;;;;;;;;;;5096063;28;20441;-73
2022/09/04 06:02:18;;;;;;;9.30;6.63;;;;;;;;;;5096036;28;20815;-73
2022/09/04 06:05:09;;;;;;;7.17;5.57;;;;;;;;;;5095658;28;20466;-73
2022/09/04 06:07:42;;;;;;;7.03;6.33;;;;;;;;;;5080091;28;20961;-73
2022/09/04 06:10:14;;;;;;;8.90;5.33;;;;;;;;;;5095719;28;20956;-73
2022/09/04 06:12:52;;;;;;;7.97;5.30;;;;;;;;;;5095560;28;20497;-73
2022/09/04 06:15:26;;;;;;;8.17;4.90;;;;;;;;;;5090296;28;20479;-73
2022/09/04 06:17:58;;;;;;;6.13;4.83;;;;;;;;;;5094967;28;20482;-73
2022/09/04 06:20:31;;;;;;;5.20;4.70;;;;;;;;;;5094912;28;20810;-73
2022/09/04 06:23:09;;;;;;;5.50;3.97;;;;;;;;;;5095279;28;20431;-73
2022/09/04 06:25:47;;;;;;;4.97;4.50;;;;;;;;;;5095946;28;20498;-73
2022/09/04 06:28:39;;;;;;;6.10;4.50;;;;;;;;;;5096009;28;20431;-73
2022/09/04 06:31:11;;;;;;;5.37;4.60;;;;;;;;;;5095622;28;20914;-73
2022/09/04 06:33:49;;;;;;;4.43;3.97;;;;;;;;;;5095117;28;20865;-73
2022/09/04 06:36:34;;;;;;;7.30;4.10;;;;;;;;;;5095207;28;20442;-73
2022/09/04 06:39:10;;;;;;;5.57;3.80;;;;;;;;;;5084967;28;20537;-73
2022/09/04 06:41:45;;;;;;;4.63;3.97;;;;;;;;;;5094773;28;20544;-73
2022/09/04 06:44:17;;;;;;;11.50;4.80;;;;;;;;;;5095080;28;20968;-73
2022/09/04 06:46:48;;;;;;;5.53;4.90;;;;;;;;;;5094860;28;20465;-73
2022/09/04 06:49:18;;;;;;;7.03;5.63;;;;;;;;;;5095532;28;20446;-73
2022/09/04 06:51:52;;;;;;;8.40;5.47;;;;;;;;;;5095312;28;20443;-73
2022/09/04 06:54:29;;;;;;;10.50;5.97;;;;;;;;;;5094665;28;20562;-73
2022/09/04 06:57:03;;;;;;;7.67;5.30;;;;;;;;;;5094062;28;20431;-73
2022/09/04 06:59:48;;;;;;;7.60;5.10;;;;;;;;;;5092548;28;20438;-74
2022/09/04 07:02:22;;;;;;;8.47;5.00;;;;;;;;;;5093575;28;20928;-73
2022/09/04 07:04:55;;;;;;;6.30;5.50;;;;;;;;;;5092796;28;20498;-74
2022/09/04 07:07:25;;;;;;;7.87;4.77;;;;;;;;;;5093102;28;20442;-74
2022/09/04 07:09:55;;;;;;;8.37;4.70;;;;;;;;;;5093268;28;20462;-74
2022/09/04 07:12:43;;;;;;;6.77;4.70;;;;;;;;;;5093084;28;20487;-74
2022/09/04 07:15:22;;;;;;;9.40;6.10;;;;;;;;;;5093615;28;20474;-73
2022/09/04 07:17:57;;;;;;;10.20;5.63;;;;;;;;;;5094283;28;20439;-73
2022/09/04 07:20:32;;;;;;;7.13;4.17;;;;;;;;;;5094246;28;20446;-74
2022/09/04 07:23:26;;;;;;;7.60;4.53;;;;;;;;;;5093596;28;20438;-74
2022/09/04 07:25:59;;;;;;;8.87;4.60;;;;;;;;;;5093875;28;20438;-74
2022/09/04 07:28:34;;;;;;;6.83;4.50;;;;;;;;;;5093284;28;20446;-74
2022/09/04 07:31:04;;;;;;;8.53;6.70;;;;;;;;;;5094080;28;20434;-73
2022/09/04 07:33:34;;;;;;;5.30;4.43;;;;;;;;;;5097077;28;20494;-74
2022/09/04 07:36:06;;;;;;;8.33;5.33;;;;;;;;;;5097904;28;20908;-73
2022/09/04 07:38:38;;;;;;;6.10;3.90;;;;;;;;;;5097590;28;20435;-73
2022/09/04 07:41:09;;;;;;;6.80;4.77;;;;;;;;;;5098003;28;20840;-73
2022/09/04 07:43:38;;;;;;;5.57;3.80;;;;;;;;;;5097321;28;20480;-74
2022/09/04 07:46:11;;;;;;;5.17;3.40;;;;;;;;;;5097849;28;20446;-74
2022/09/04 07:48:41;;;;;;;4.70;3.73;;;;;;;;;;5097492;28;20438;-73
2022/09/04 07:51:10;;;;;;;5.50;3.00;;;;;;;;;;5098105;28;20446;-73
2022/09/04 07:53:50;;;;;;;3.90;3.13;;;;;;;;;;5097347;28;20540;-74
2022/09/04 07:56:24;;;;;;;8.57;3.40;;;;;;;;;;5098272;28;20446;-73
2022/09/04 07:58:57;;;;;;;3.77;3.20;;;;;;;;;;5098469;28;20430;-74
2022/09/04 08:01:33;;;;;;;4.40;3.23;;;;;;;;;;5098214;28;20423;-74
2022/09/04 08:04:08;;;;;;;2.90;2.40;;;;;;;;;;5097114;28;21034;-74
2022/09/04 08:06:38;;;;;;;4.03;3.57;;;;;;;;;;5097052;28;20438;-74
2022/09/04 08:09:16;;;;;;;6.10;3.83;;;;;;;;;;5097274;28;20457;-74
2022/09/04 08:11:58;;;;;;;4.77;3.33;;;;;;;;;;5097247;28;20487;-75
2022/09/04 08:14:36;;;;;;;3.60;2.50;;;;;;;;;;5098046;28;20494;-74
2022/09/04 08:17:24;;;;;;;3.50;2.60;;;;;;;;;;5097274;28;20846;-74
2022/09/04 08:19:56;;;;;;;6.43;4.70;;;;;;;;;;5097411;28;20435;-74
2022/09/04 08:22:30;;;;;;;4.10;2.60;;;;;;;;;;5097293;28;20806;-74
2022/09/04 08:25:05;;;;;;;4.23;2.90;;;;;;;;;;5096707;28;20473;-74
2022/09/04 08:27:48;;;;;;;5.67;3.10;;;;;;;;;;5097540;28;20435;-74
2022/09/04 08:30:17;;;;;;;3.80;2.93;;;;;;;;;;5096790;28;20848;-74
2022/09/04 08:33:02;;;;;;;4.73;3.40;;;;;;;;;;5097115;28;20497;-74
2022/09/04 08:35:33;;;;;;;4.20;3.03;;;;;;;;;;5087070;28;20555;-74
2022/09/04 08:38:11;;;;;;;4.77;2.80;;;;;;;;;;5096707;28;20454;-74
2022/09/04 08:40:53;;;;;;;3.23;2.50;;;;;;;;;;5097560;28;20441;-74
2022/09/04 08:43:33;;;;;;;5.80;2.87;;;;;;;;;;5096451;28;20812;-74
2022/09/04 08:46:18;;;;;;;4.13;2.80;;;;;;;;;;5096490;28;20441;-74
2022/09/04 08:48:59;;;;;;;8.37;2.93;;;;;;;;;;5096974;28;20454;-75
2022/09/04 08:51:42;;;;;;;3.40;2.73;;;;;;;;;;5097572;28;20443;-75
2022/09/04 08:54:33;;;;;;;3.50;2.67;;;;;;;;;;5098062;28;20491;-75
2022/09/04 08:57:18;;;;;;;4.33;2.70;;;;;;;;;;5098593;28;20435;-75
2022/09/04 09:00:01;;;;;;;4.93;3.13;;;;;;;;;;5097693;28;20439;-75
2022/09/04 09:02:47;;;;;;;4.73;3.43;;;;;;;;;;5095710;28;20466;-76
2022/09/04 09:05:33;;;;;;;4.70;3.67;;;;;;;;;;5095231;28;20482;-76
2022/09/04 09:08:13;;;;;;;4.57;3.23;;;;;;;;;;5095029;28;20488;-75
2022/09/04 09:10:49;;;;;;;3.83;3.40;;;;;;;;;;5095532;28;20455;-75
2022/09/04 09:13:32;;;;;;;3.60;2.90;;;;;;;;;;5095510;28;20515;-75
2022/09/04 09:16:21;;;;;;;6.70;3.60;;;;;;;;;;5095621;28;20458;-74
2022/09/04 09:19:01;;;;;;;4.40;3.00;;;;;;;;;;5095385;28;20447;-75
2022/09/04 09:21:37;;;;;;;4.87;3.30;;;;;;;;;;5095069;28;20455;-75
2022/09/04 09:24:19;;;;;;;5.10;3.77;;;;;;;;;;5095965;28;20473;-75
2022/09/04 09:26:58;;;;;;;5.40;3.70;;;;;;;;;;5061764;28;20453;-75
2022/09/04 09:29:36;;;;;;;8.83;4.20;;;;;;;;;;5094921;28;21024;-75
2022/09/04 09:32:18;;;;;;;4.23;3.67;;;;;;;;;;5094608;28;20845;-75
2022/09/04 09:35:07;;;;;;;9.20;5.60;;;;;;;;;;5094533;28;20995;-75
2022/09/04 09:37:49;;;;;;;5.77;4.80;;;;;;;;;;5094597;28;20450;-75
2022/09/04 09:40:31;;;;;;;7.53;4.50;;;;;;;;;;5061290;28;20956;-75
2022/09/04 09:43:23;;;;;;;5.10;4.40;;;;;;;;;;5092431;28;20454;-75
2022/09/04 09:46:02;;;;;;;7.20;4.50;;;;;;;;;;5094658;28;20446;-75
2022/09/04 09:48:56;;;;;;;4.63;4.10;;;;;;;;;;5094778;28;20457;-75
2022/09/04 09:51:50;;;;;;;4.13;2.70;;;;;;;;;;5094836;28;20733;-75
2022/09/04 09:54:26;;;;;;;5.90;3.70;;;;;;;;;;5093481;28;20495;-75
2022/09/04 09:57:11;;;;;;;4.47;3.80;;;;;;;;;;5094366;28;20458;-74
2022/09/04 09:59:45;;;;;;;4.30;3.40;;;;;;;;;;5094275;28;20439;-74
2022/09/04 10:02:19;;;;;;;3.80;3.37;;;;;;;;;;5094457;28;20442;-74
2022/09/04 10:05:00;;;;;;;4.23;3.00;;;;;;;;;;5094418;28;20462;-73
2022/09/04 10:07:53;;;;;;;4.77;2.80;;;;;;;;;;5094294;28;20454;-74
2022/09/04 10:10:44;;;;;;;5.23;2.80;;;;;;;;;;5094312;28;20446;-74
2022/09/04 10:13:35;;;;;;;3.37;3.00;;;;;;;;;;5078713;28;20490;-74
2022/09/04 10:16:28;;;;;;;3.00;2.70;;;;;;;;;;5093949;28;20459;-74
2022/09/04 10:19:10;;;;;;;3.07;2.77;;;;;;;;;;5094178;28;20435;-74
2022/09/04 10:21:50;;;;;;;2.90;2.60;;;;;;;;;;5093989;28;20450;-74
2022/09/04 10:24:38;;;;;;;3.17;2.50;;;;;;;;;;5093747;28;20878;-74
2022/09/04 10:27:23;;;;;;;3.20;2.57;;;;;;;;;;5094162;28;20462;-74
2022/09/04 10:30:03;;;;;;;2.10;1.90;;;;;;;;;;5093872;28;20446;-74
2022/09/04 10:32:38;;;;;;;2.83;2.53;;;;;;;;;;5093714;28;20517;-74
2022/09/04 10:35:21;;;;;;;5.73;2.50;;;;;;;;;;5093813;28;20489;-74
2022/09/04 10:38:05;;;;;;;2.70;2.50;;;;;;;;;;5093985;28;20445;-74
2022/09/04 10:40:38;;;;;;;2.90;2.60;;;;;;;;;;5093863;28;20436;-74
2022/09/04 10:43:18;;;;;;;3.67;2.20;;;;;;;;;;5093528;28;20435;-74
2022/09/04 10:45:46;;;;;;;2.77;2.47;;;;;;;;;;5094180;28;20435;-74
2022/09/04 10:48:31;;;;;;;2.77;2.50;;;;;;;;;;5094000;28;20935;-74
2022/09/04 10:51:07;;;;;;;3.27;2.63;;;;;;;;;;5094065;28;20431;-74
2022/09/04 10:53:53;;;;;;;4.37;3.00;;;;;;;;;;5093745;28;20494;-74
2022/09/04 10:56:28;;;;;;;3.33;2.53;;;;;;;;;;5093925;28;20439;-74
2022/09/04 10:59:19;;;;;;;3.80;2.63;;;;;;;;;;5093497;28;20474;-74
2022/09/04 11:02:10;;;;;;;3.53;2.53;;;;;;;;;;5093646;28;20818;-74
2022/09/04 11:05:05;;;;;;;4.33;2.63;;;;;;;;;;5077926;28;20809;-74
2022/09/04 11:07:54;;;;;;;3.00;2.27;;;;;;;;;;5097836;28;20443;-75
2022/09/04 11:10:26;;;;;;;3.20;2.90;;;;;;;;;;5072381;28;20478;-74
2022/09/04 11:13:08;;;;;;;4.90;2.33;;;;;;;;;;5097987;28;20897;-74
2022/09/04 11:15:46;;;;;;;4.70;3.77;;;;;;;;;;5097774;28;20905;-75
2022/09/04 11:18:33;;;;;;;3.40;2.83;;;;;;;;;;5097750;28;20819;-74
2022/09/04 11:21:19;;;;;;;7.70;3.90;;;;;;;;;;5097390;28;20468;-74
2022/09/04 11:24:05;;;;;;;4.73;3.30;;;;;;;;;;5087541;28;20489;-74
2022/09/04 11:27:02;;;;;;;4.10;3.60;;;;;;;;;;5097593;28;20453;-74
2022/09/04 11:29:40;;;;;;;4.30;3.90;;;;;;;;;;5097965;28;20427;-74
2022/09/04 11:32:25;;;;;;;3.73;3.13;;;;;;;;;;5097939;28;20437;-74
2022/09/04 11:35:23;;;;;;;3.83;3.03;;;;;;;;;;5097327;28;20494;-74
2022/09/04 11:38:02;;;;;;;4.00;2.70;;;;;;;;;;5097545;28;20458;-74
2022/09/04 11:40:50;;;;;;;3.13;2.60;;;;;;;;;;5097533;28;20797;-74
2022/09/04 11:43:29;;;;;;;3.87;2.47;;;;;;;;;;5071094;28;20442;-74
2022/09/04 11:46:09;;;;;;;3.10;2.20;;;;;;;;;;5097235;28;20796;-74
2022/09/04 11:48:57;;;;;;;2.90;2.63;;;;;;;;;;5097299;28;20435;-74
2022/09/04 11:51:40;;;;;;;2.30;1.80;;;;;;;;;;5092474;28;20470;-74
2022/09/04 11:54:23;;;;;;;3.47;2.37;;;;;;;;;;5084508;28;20891;-74
2022/09/04 11:56:57;;;;;;;3.30;2.00;;;;;;;;;;5094793;28;20866;-74
2022/09/04 11:59:42;;;;;;;2.10;1.77;;;;;;;;;;5096823;28;20434;-75
2022/09/04 12:02:21;;;;;;;5.00;2.03;;;;;;;;;;5096721;28;20434;-75
2022/09/04 12:04:59;;;;;;;3.57;2.17;;;;;;;;;;5096345;28;20519;-74
2022/09/04 12:07:33;;;;;;;5.40;2.40;;;;;;;;;;5097243;28;20442;-75
2022/09/04 12:10:14;;;;;;;2.47;2.03;;;;;;;;;;5097222;28;20437;-75
2022/09/04 12:12:56;;;;;;;2.20;2.00;;;;;;;;;;5097098;28;20908;-74
2022/09/04 12:15:49;;;;;;;2.00;1.80;;;;;;;;;;5097433;28;20983;-75
2022/09/04 12:18:33;;;;;;;3.10;1.90;;;;;;;;;;5096254;28;20529;-75
2022/09/04 12:21:06;;;;;;;2.67;1.97;;;;;;;;;;5097280;28;20438;-75
2022/09/04 12:23:57;;;;;;;2.50;1.87;;;;;;;;;;5096642;28;20478;-75
2022/09/04 12:26:32;;;;;;;3.10;1.90;;;;;;;;;;5081601;28;20473;-75
2022/09/04 12:29:07;;;;;;;1.80;1.70;;;;;;;;;;5096677;28;20801;-74
2022/09/04 12:31:45;;;;;;;2.93;1.83;;;;;;;;;;5096919;28;20805;-75
2022/09/04 12:34:22;;;;;;;2.07;1.70;;;;;;;;;;5096733;28;20991;-75
2022/09/04 12:37:00;;;;;;;2.00;1.80;;;;;;;;;;5096283;28;20485;-75
2022/09/04 12:39:46;;;;;;;1.97;1.77;;;;;;;;;;5096784;28;20853;-74
2022/09/04 12:42:16;;;;;;;2.03;1.87;;;;;;;;;;5086163;28;20520;-74
2022/09/04 12:44:51;;;;;;;2.00;1.80;;;;;;;;;;5095816;28;20467;-74
2022/09/04 12:47:22;;;;;;;2.67;2.47;;;;;;;;;;5096135;28;20437;-74
2022/09/04 12:50:00;;;;;;;2.23;2.00;;;;;;;;;;5096322;28;20438;-74
2022/09/04 12:52:34;;;;;;;2.80;1.83;;;;;;;;;;5096251;28;20896;-74
2022/09/04 12:55:08;;;;;;;2.00;1.80;;;;;;;;;;5095894;28;20494;-74
2022/09/04 12:57:42;;;;;;;5.37;2.40;;;;;;;;;;5096476;28;20439;-75
2022/09/04 13:00:11;;;;;;;5.33;2.43;;;;;;;;;;5095977;28;20970;-74
2022/09/04 13:02:45;;;;;;;3.30;2.67;;;;;;;;;;5096019;28;20939;-74
2022/09/04 13:05:30;;;;;;;2.37;2.17;;;;;;;;;;5096049;28;20473;-74
2022/09/04 13:08:02;;;;;;;2.40;2.20;;;;;;;;;;5095634;28;20454;-74
2022/09/04 13:10:32;;;;;;;3.67;2.50;;;;;;;;;;5095814;28;20958;-74
2022/09/04 13:13:05;;;;;;;2.37;2.17;;;;;;;;;;5095630;28;20447;-74
2022/09/04 13:15:40;;;;;;;3.33;3.03;;;;;;;;;;5095581;28;20467;-74
2022/09/04 13:18:14;;;;;;;4.43;2.77;;;;;;;;;;5095546;28;20438;-75
2022/09/04 13:20:45;;;;;;;3.20;2.77;;;;;;;;;;5095614;28;20461;-75
2022/09/04 13:23:19;;;;;;;3.80;3.10;;;;;;;;;;5095307;28;20439;-75
2022/09/04 13:25:54;;;;;;;2.67;2.10;;;;;;;;;;5095476;28;20444;-75
2022/09/04 13:28:29;;;;;;;2.37;1.90;;;;;;;;;;5095336;28;20517;-74
2022/09/04 13:31:14;;;;;;;3.73;2.40;;;;;;;;;;5095648;28;20933;-74
2022/09/04 13:33:46;;;;;;;3.40;1.60;;;;;;;;;;5095040;28;20482;-75
2022/09/04 13:36:18;;;;;;;4.30;1.87;;;;;;;;;;5095204;28;20423;-75
2022/09/04 13:39:06;;;;;;;2.50;2.23;;;;;;;;;;5095480;28;20496;-75
2022/09/04 13:41:42;;;;;;;2.77;2.20;;;;;;;;;;5094797;28;20978;-75
2022/09/04 13:44:20;;;;;;;3.93;2.70;;;;;;;;;;5094724;28;20462;-75
2022/09/04 13:46:50;;;;;;;4.27;1.93;;;;;;;;;;5095301;28;20943;-75
2022/09/04 13:49:18;;;;;;;2.40;2.20;;;;;;;;;;5095207;28;20446;-75
2022/09/04 13:51:48;;;;;;;2.43;1.90;;;;;;;;;;5094955;28;20461;-75
2022/09/04 13:54:18;;;;;;;3.13;2.83;;;;;;;;;;5094924;28;20490;-74
2022/09/04 13:56:49;;;;;;;2.20;2.00;;;;;;;;;;5094972;28;20454;-75
2022/09/04 13:59:17;;;;;;;2.07;1.80;;;;;;;;;;5094595;28;20443;-75
2022/09/04 14:01:46;;;;;;;2.53;1.70;;;;;;;;;;5095026;28;20818;-74
2022/09/04 14:04:18;;;;;;;3.67;2.70;;;;;;;;;;5094950;28;20473;-75
2022/09/04 14:06:45;;;;;;;2.53;1.90;;;;;;;;;;5095191;28;20454;-75
2022/09/04 14:09:12;;;;;;;1.97;1.60;;;;;;;;;;5095140;28;20431;-75
2022/09/04 14:12:03;;;;;;;2.50;2.10;;;;;;;;;;5094689;28;20451;-74
2022/09/04 14:14:40;;;;;;;2.17;1.93;;;;;;;;;;5094276;28;20494;-74
2022/09/04 14:17:08;;;;;;;3.33;2.83;;;;;;;;;;5094617;28;20912;-74
2022/09/04 14:19:42;;;;;;;2.30;1.83;;;;;;;;;;5093997;28;20459;-74
2022/09/04 14:22:15;;;;;;;2.07;1.87;;;;;;;;;;5094612;28;20486;-74
2022/09/04 14:24:45;;;;;;;2.33;2.13;;;;;;;;;;5094427;28;20470;-75
2022/09/04 14:27:14;;;;;;;3.13;1.80;;;;;;;;;;5094609;28;20435;-75
2022/09/04 14:29:49;;;;;;;2.87;2.47;;;;;;;;;;5094468;28;20458;-75
2022/09/04 14:32:21;;;;;;;3.00;2.03;;;;;;;;;;5094393;28;20435;-75
2022/09/04 14:35:01;;;;;;;2.30;1.83;;;;;;;;;;5094548;28;20502;-75
2022/09/04 14:37:39;;;;;;;2.70;2.13;;;;;;;;;;5094252;28;20450;-75
2022/09/04 14:40:10;;;;;;;2.97;1.80;;;;;;;;;;5094081;28;20492;-75
2022/09/04 14:42:41;;;;;;;2.30;2.10;;;;;;;;;;5093914;28;20466;-75
2022/09/04 14:45:24;;;;;;;2.57;2.20;;;;;;;;;;5093708;28;20478;-75
2022/09/04 14:47:53;;;;;;;3.13;2.80;;;;;;;;;;5092167;28;20948;-75
2022/09/04 14:50:29;;;;;;;1.97;1.77;;;;;;;;;;5094837;28;20450;-75
2022/09/04 14:52:58;;;;;;;2.50;1.80;;;;;;;;;;5094296;28;20457;-75
2022/09/04 14:55:26;;;;;;;3.37;3.07;;;;;;;;;;5093951;28;20492;-75
2022/09/04 14:57:56;;;;;;;2.10;1.90;;;;;;;;;;5094032;28;20450;-75
2022/09/04 15:00:23;;;;;;;1.97;1.50;;;;;;;;;;5094099;28;20541;-75
2022/09/04 15:02:56;;;;;;;2.10;1.90;;;;;;;;;;5093612;28;20450;-75
2022/09/04 15:05:27;;;;;;;3.73;1.93;;;;;;;;;;5094215;28;20474;-75
2022/09/04 15:07:56;;;;;;;7.13;5.70;;;;;;;;;;5094004;28;20896;-75
2022/09/04 15:10:25;;;;;;;2.83;1.97;;;;;;;;;;5093992;28;20439;-75
2022/09/04 15:12:54;;;;;;;7.47;6.60;;;;;;;;;;5093864;28;20500;-75
2022/09/04 15:15:23;;;;;;;2.23;1.80;;;;;;;;;;5093679;28;20493;-75
2022/09/04 15:17:54;;;;;;;1.80;1.50;;;;;;;;;;5093725;28;20950;-75
2022/09/04 15:20:22;;;;;;;2.70;2.20;;;;;;;;;;5093716;28;20446;-75
2022/09/04 15:22:54;;;;;;;3.87;2.43;;;;;;;;;;5093559;28;20454;-75
2022/09/04 15:25:32;;;;;;;1.90;1.63;;;;;;;;;;5094063;28;20466;-75
2022/09/04 15:28:01;;;;;;;2.70;2.30;;;;;;;;;;5093899;28;20435;-74
2022/09/04 15:30:30;;;;;;;2.00;1.80;;;;;;;;;;5093687;28;20526;-75
2022/09/04 15:33:04;;;;;;;2.43;1.30;;;;;;;;;;5093162;28;20462;-75
2022/09/04 15:35:31;;;;;;;2.20;2.00;;;;;;;;;;5093732;28;20466;-75
2022/09/04 15:38:16;;;;;;;2.83;2.23;;;;;;;;;;5094229;28;20597;-75